Main page
METAR-TAF:

METAR-TAF

Airports :

Silvio Pettirossi International Airport

Asunción, Paraguay

latitude: 25-16S, longitude: 057-38W, elevation: 101 m

Current weather observation

The report was made 40 minutes ago, at 02:00 UTC
Wind 4 kt from the Southwest
Temperature 18°C
Humidity 68%
Pressure 1018 hPa
Visibility 10 km or more
no clouds below 1500 m and no cumulonimbus

METAR: SGAS 030200Z 22004KT CAVOK 18/12 Q1018

Time: 23:40 (02:40 UTC)

Forecast

The report was made 4 hours and 35 minutes ago, at 22:05 UTC
Forecast valid from 03 at 00 UTC to 04 at 00 UTC
Wind 8 kt from the South
Visibility 10 km or more
no clouds below 1500 m and no cumulonimbus

TAF: SGAS 022205Z 0300/0400 18008KT CAVOK TX29/0319Z TN15/0310Z

Weather observations and forecasts of more than 4000 airports (METAR and TAF reports).

The available stations are represented by yellow and red dots on the map.

Hover mouse over dot to see the name of the station.

Then click to see weather observations and forecasts.

To change the map : click on the green buttons with a black cross to zoom in, on the green button with a dash to zoom out, or on the green arrows for adjacent maps.


METAR-TAF: